sensor_id;sensor_type;location;lat;lon;timestamp;P1;durP1;ratioP1;P2;durP2;ratioP2
9898;SDS011;4988;49.238;6.698;2023-05-07T00:00:50;6.23;;;3.37;;
9898;SDS011;4988;49.238;6.698;2023-05-07T00:03:16;5.83;;;3.50;;
9898;SDS011;4988;49.238;6.698;2023-05-07T00:05:41;5.73;;;3.43;;
9898;SDS011;4988;49.238;6.698;2023-05-07T00:08:07;6.33;;;3.33;;
9898;SDS011;4988;49.238;6.698;2023-05-07T00:10:33;5.03;;;3.10;;
9898;SDS011;4988;49.238;6.698;2023-05-07T00:12:58;5.63;;;3.90;;
9898;SDS011;4988;49.238;6.698;2023-05-07T00:15:23;6.57;;;3.87;;
9898;SDS011;4988;49.238;6.698;2023-05-07T00:17:49;5.07;;;3.37;;
9898;SDS011;4988;49.238;6.698;2023-05-07T00:20:14;4.30;;;3.13;;
9898;SDS011;4988;49.238;6.698;2023-05-07T00:22:40;7.60;;;3.60;;
9898;SDS011;4988;49.238;6.698;2023-05-07T00:25:05;5.40;;;4.10;;
9898;SDS011;4988;49.238;6.698;2023-05-07T00:27:31;6.43;;;3.53;;
9898;SDS011;4988;49.238;6.698;2023-05-07T00:29:56;6.87;;;3.37;;
9898;SDS011;4988;49.238;6.698;2023-05-07T00:32:22;5.57;;;3.70;;
9898;SDS011;4988;49.238;6.698;2023-05-07T00:34:47;6.53;;;3.60;;
9898;SDS011;4988;49.238;6.698;2023-05-07T00:37:12;6.80;;;4.03;;
9898;SDS011;4988;49.238;6.698;2023-05-07T00:39:37;5.90;;;3.63;;
9898;SDS011;4988;49.238;6.698;2023-05-07T00:42:03;6.30;;;4.00;;
9898;SDS011;4988;49.238;6.698;2023-05-07T00:44:28;6.77;;;4.30;;
9898;SDS011;4988;49.238;6.698;2023-05-07T00:46:54;7.60;;;3.93;;
9898;SDS011;4988;49.238;6.698;2023-05-07T00:49:21;4.53;;;3.50;;
9898;SDS011;4988;49.238;6.698;2023-05-07T00:51:47;6.13;;;4.00;;
9898;SDS011;4988;49.238;6.698;2023-05-07T00:54:13;7.10;;;3.60;;
9898;SDS011;4988;49.238;6.698;2023-05-07T00:56:38;4.63;;;3.53;;
9898;SDS011;4988;49.238;6.698;2023-05-07T00:59:04;4.40;;;3.50;;
9898;SDS011;4988;49.238;6.698;2023-05-07T01:01:31;5.23;;;3.67;;
9898;SDS011;4988;49.238;6.698;2023-05-07T01:03:56;7.37;;;4.40;;
9898;SDS011;4988;49.238;6.698;2023-05-07T01:06:22;7.03;;;3.60;;
9898;SDS011;4988;49.238;6.698;2023-05-07T01:08:49;4.20;;;3.80;;
9898;SDS011;4988;49.238;6.698;2023-05-07T01:11:17;5.13;;;3.93;;
9898;SDS011;4988;49.238;6.698;2023-05-07T01:13:45;5.33;;;4.20;;
9898;SDS011;4988;49.238;6.698;2023-05-07T01:16:11;9.20;;;4.60;;
9898;SDS011;4988;49.238;6.698;2023-05-07T01:18:36;8.40;;;4.10;;
9898;SDS011;4988;49.238;6.698;2023-05-07T01:21:02;5.93;;;4.20;;
9898;SDS011;4988;49.238;6.698;2023-05-07T01:23:29;8.20;;;4.07;;
9898;SDS011;4988;49.238;6.698;2023-05-07T01:25:55;6.43;;;3.67;;
9898;SDS011;4988;49.238;6.698;2023-05-07T01:28:22;8.17;;;4.00;;
9898;SDS011;4988;49.238;6.698;2023-05-07T01:30:48;6.40;;;3.90;;
9898;SDS011;4988;49.238;6.698;2023-05-07T01:33:18;4.83;;;4.13;;
9898;SDS011;4988;49.238;6.698;2023-05-07T01:35:46;7.20;;;4.30;;
9898;SDS011;4988;49.238;6.698;2023-05-07T01:38:15;4.77;;;3.90;;
9898;SDS011;4988;49.238;6.698;2023-05-07T01:40:41;5.43;;;3.97;;
9898;SDS011;4988;49.238;6.698;2023-05-07T01:43:06;5.20;;;4.13;;
9898;SDS011;4988;49.238;6.698;2023-05-07T01:45:32;7.80;;;4.00;;
9898;SDS011;4988;49.238;6.698;2023-05-07T01:47:59;5.23;;;4.03;;
9898;SDS011;4988;49.238;6.698;2023-05-07T01:50:26;5.43;;;4.23;;
9898;SDS011;4988;49.238;6.698;2023-05-07T01:52:52;5.07;;;3.83;;
9898;SDS011;4988;49.238;6.698;2023-05-07T01:55:17;5.70;;;4.20;;
9898;SDS011;4988;49.238;6.698;2023-05-07T01:57:43;5.13;;;4.07;;
9898;SDS011;4988;49.238;6.698;2023-05-07T02:00:08;6.53;;;4.03;;
9898;SDS011;4988;49.238;6.698;2023-05-07T02:02:34;6.27;;;4.10;;
9898;SDS011;4988;49.238;6.698;2023-05-07T02:05:00;5.97;;;3.90;;
9898;SDS011;4988;49.238;6.698;2023-05-07T02:07:26;6.30;;;4.10;;
9898;SDS011;4988;49.238;6.698;2023-05-07T02:09:52;4.60;;;4.07;;
9898;SDS011;4988;49.238;6.698;2023-05-07T02:12:17;10.37;;;4.47;;
9898;SDS011;4988;49.238;6.698;2023-05-07T02:14:43;4.17;;;3.77;;
9898;SDS011;4988;49.238;6.698;2023-05-07T02:17:08;9.23;;;4.17;;
9898;SDS011;4988;49.238;6.698;2023-05-07T02:19:33;7.80;;;4.40;;
9898;SDS011;4988;49.238;6.698;2023-05-07T02:21:59;6.43;;;4.60;;
9898;SDS011;4988;49.238;6.698;2023-05-07T02:24:24;4.87;;;4.33;;
9898;SDS011;4988;49.238;6.698;2023-05-07T02:26:49;4.87;;;3.87;;
9898;SDS011;4988;49.238;6.698;2023-05-07T02:29:15;5.30;;;4.50;;
9898;SDS011;4988;49.238;6.698;2023-05-07T02:31:40;7.37;;;4.40;;
9898;SDS011;4988;49.238;6.698;2023-05-07T02:34:05;6.57;;;4.30;;
9898;SDS011;4988;49.238;6.698;2023-05-07T02:36:31;6.10;;;4.47;;
9898;SDS011;4988;49.238;6.698;2023-05-07T02:38:56;5.73;;;4.10;;
9898;SDS011;4988;49.238;6.698;2023-05-07T02:41:21;5.50;;;4.00;;
9898;SDS011;4988;49.238;6.698;2023-05-07T02:43:47;6.97;;;4.20;;
9898;SDS011;4988;49.238;6.698;2023-05-07T02:46:12;5.70;;;4.40;;
9898;SDS011;4988;49.238;6.698;2023-05-07T02:48:37;4.20;;;3.80;;
9898;SDS011;4988;49.238;6.698;2023-05-07T02:51:03;6.57;;;4.43;;
9898;SDS011;4988;49.238;6.698;2023-05-07T02:53:29;9.80;;;4.37;;
9898;SDS011;4988;49.238;6.698;2023-05-07T02:55:59;5.33;;;4.77;;
9898;SDS011;4988;49.238;6.698;2023-05-07T02:58:25;5.20;;;4.13;;
9898;SDS011;4988;49.238;6.698;2023-05-07T03:00:51;5.53;;;4.10;;
9898;SDS011;4988;49.238;6.698;2023-05-07T03:03:16;8.90;;;4.80;;
9898;SDS011;4988;49.238;6.698;2023-05-07T03:05:42;4.60;;;4.03;;
9898;SDS011;4988;49.238;6.698;2023-05-07T03:08:07;7.33;;;4.47;;
9898;SDS011;4988;49.238;6.698;2023-05-07T03:10:33;5.87;;;4.27;;
9898;SDS011;4988;49.238;6.698;2023-05-07T03:13:01;7.23;;;4.17;;
9898;SDS011;4988;49.238;6.698;2023-05-07T03:15:26;5.60;;;4.10;;
9898;SDS011;4988;49.238;6.698;2023-05-07T03:17:51;8.43;;;4.13;;
9898;SDS011;4988;49.238;6.698;2023-05-07T03:20:17;5.97;;;4.37;;
9898;SDS011;4988;49.238;6.698;2023-05-07T03:22:42;6.20;;;4.30;;
9898;SDS011;4988;49.238;6.698;2023-05-07T03:25:07;7.33;;;4.63;;
9898;SDS011;4988;49.238;6.698;2023-05-07T03:27:33;5.80;;;4.47;;
9898;SDS011;4988;49.238;6.698;2023-05-07T03:29:59;6.53;;;4.60;;
9898;SDS011;4988;49.238;6.698;2023-05-07T03:32:25;6.23;;;4.70;;
9898;SDS011;4988;49.238;6.698;2023-05-07T03:34:50;5.70;;;4.53;;
9898;SDS011;4988;49.238;6.698;2023-05-07T03:37:15;7.30;;;4.60;;
9898;SDS011;4988;49.238;6.698;2023-05-07T03:39:41;4.97;;;4.37;;
9898;SDS011;4988;49.238;6.698;2023-05-07T03:42:06;5.77;;;4.73;;
9898;SDS011;4988;49.238;6.698;2023-05-07T03:44:32;5.10;;;4.50;;
9898;SDS011;4988;49.238;6.698;2023-05-07T03:46:57;6.47;;;4.17;;
9898;SDS011;4988;49.238;6.698;2023-05-07T03:49:22;6.40;;;4.53;;
9898;SDS011;4988;49.238;6.698;2023-05-07T03:51:48;6.20;;;4.30;;
9898;SDS011;4988;49.238;6.698;2023-05-07T03:54:13;5.33;;;4.37;;
9898;SDS011;4988;49.238;6.698;2023-05-07T03:56:38;7.57;;;4.50;;
9898;SDS011;4988;49.238;6.698;2023-05-07T03:59:03;7.83;;;4.67;;
9898;SDS011;4988;49.238;6.698;2023-05-07T04:01:29;9.77;;;4.80;;
9898;SDS011;4988;49.238;6.698;2023-05-07T04:03:55;7.10;;;4.50;;
9898;SDS011;4988;49.238;6.698;2023-05-07T04:06:20;7.27;;;4.73;;
9898;SDS011;4988;49.238;6.698;2023-05-07T04:08:45;5.63;;;4.57;;
9898;SDS011;4988;49.238;6.698;2023-05-07T04:11:11;5.20;;;4.63;;
9898;SDS011;4988;49.238;6.698;2023-05-07T04:13:36;9.37;;;5.13;;
9898;SDS011;4988;49.238;6.698;2023-05-07T04:16:02;6.47;;;4.70;;
9898;SDS011;4988;49.238;6.698;2023-05-07T04:18:29;6.97;;;4.63;;
9898;SDS011;4988;49.238;6.698;2023-05-07T04:20:54;6.63;;;4.87;;
9898;SDS011;4988;49.238;6.698;2023-05-07T04:23:20;7.73;;;4.70;;
9898;SDS011;4988;49.238;6.698;2023-05-07T04:25:45;5.87;;;4.60;;
9898;SDS011;4988;49.238;6.698;2023-05-07T04:28:11;6.00;;;4.60;;
9898;SDS011;4988;49.238;6.698;2023-05-07T04:30:37;6.57;;;4.43;;
9898;SDS011;4988;49.238;6.698;2023-05-07T04:33:03;6.13;;;4.87;;
9898;SDS011;4988;49.238;6.698;2023-05-07T04:35:28;8.50;;;4.73;;
9898;SDS011;4988;49.238;6.698;2023-05-07T04:37:53;7.57;;;5.13;;
9898;SDS011;4988;49.238;6.698;2023-05-07T04:40:19;7.10;;;4.73;;
9898;SDS011;4988;49.238;6.698;2023-05-07T04:42:44;6.10;;;5.20;;
9898;SDS011;4988;49.238;6.698;2023-05-07T04:45:10;4.97;;;4.47;;
9898;SDS011;4988;49.238;6.698;2023-05-07T04:47:35;7.17;;;5.10;;
9898;SDS011;4988;49.238;6.698;2023-05-07T04:50:01;6.87;;;5.10;;
9898;SDS011;4988;49.238;6.698;2023-05-07T04:52:26;7.63;;;5.20;;
9898;SDS011;4988;49.238;6.698;2023-05-07T04:54:52;7.60;;;5.40;;
9898;SDS011;4988;49.238;6.698;2023-05-07T04:57:17;9.90;;;5.47;;
9898;SDS011;4988;49.238;6.698;2023-05-07T04:59:43;8.07;;;5.90;;
9898;SDS011;4988;49.238;6.698;2023-05-07T05:02:09;7.57;;;5.30;;
9898;SDS011;4988;49.238;6.698;2023-05-07T05:04:35;7.43;;;5.30;;
9898;SDS011;4988;49.238;6.698;2023-05-07T05:07:01;7.90;;;5.23;;
9898;SDS011;4988;49.238;6.698;2023-05-07T05:09:28;5.87;;;4.73;;
9898;SDS011;4988;49.238;6.698;2023-05-07T05:11:53;6.57;;;4.57;;
9898;SDS011;4988;49.238;6.698;2023-05-07T05:14:19;10.13;;;5.50;;
9898;SDS011;4988;49.238;6.698;2023-05-07T05:16:44;5.50;;;4.90;;
9898;SDS011;4988;49.238;6.698;2023-05-07T05:19:10;8.30;;;4.93;;
9898;SDS011;4988;49.238;6.698;2023-05-07T05:21:35;7.43;;;4.73;;
9898;SDS011;4988;49.238;6.698;2023-05-07T05:24:00;6.60;;;5.10;;
9898;SDS011;4988;49.238;6.698;2023-05-07T05:26:26;6.33;;;5.13;;
9898;SDS011;4988;49.238;6.698;2023-05-07T05:28:51;6.63;;;5.10;;
9898;SDS011;4988;49.238;6.698;2023-05-07T05:31:16;9.23;;;5.30;;
9898;SDS011;4988;49.238;6.698;2023-05-07T05:33:42;9.73;;;5.40;;
9898;SDS011;4988;49.238;6.698;2023-05-07T05:36:09;7.80;;;5.10;;
9898;SDS011;4988;49.238;6.698;2023-05-07T05:38:35;6.40;;;5.37;;
9898;SDS011;4988;49.238;6.698;2023-05-07T05:41:00;8.83;;;5.17;;
9898;SDS011;4988;49.238;6.698;2023-05-07T05:43:25;7.93;;;4.63;;
9898;SDS011;4988;49.238;6.698;2023-05-07T05:45:51;7.30;;;5.03;;
9898;SDS011;4988;49.238;6.698;2023-05-07T05:48:16;6.50;;;4.90;;
9898;SDS011;4988;49.238;6.698;2023-05-07T05:50:41;7.37;;;5.33;;
9898;SDS011;4988;49.238;6.698;2023-05-07T05:53:07;8.73;;;5.23;;
9898;SDS011;4988;49.238;6.698;2023-05-07T05:55:32;8.37;;;5.00;;
9898;SDS011;4988;49.238;6.698;2023-05-07T05:57:59;10.10;;;5.20;;
9898;SDS011;4988;49.238;6.698;2023-05-07T06:00:25;10.00;;;5.70;;
9898;SDS011;4988;49.238;6.698;2023-05-07T06:02:51;12.43;;;6.07;;
9898;SDS011;4988;49.238;6.698;2023-05-07T06:05:16;8.13;;;5.10;;
9898;SDS011;4988;49.238;6.698;2023-05-07T06:07:42;5.47;;;4.50;;
9898;SDS011;4988;49.238;6.698;2023-05-07T06:10:07;6.33;;;5.10;;
9898;SDS011;4988;49.238;6.698;2023-05-07T06:12:33;6.33;;;4.80;;
9898;SDS011;4988;49.238;6.698;2023-05-07T06:14:58;7.90;;;5.53;;
9898;SDS011;4988;49.238;6.698;2023-05-07T06:17:23;7.60;;;5.20;;
9898;SDS011;4988;49.238;6.698;2023-05-07T06:19:49;11.33;;;6.17;;
9898;SDS011;4988;49.238;6.698;2023-05-07T06:22:14;9.07;;;5.43;;
9898;SDS011;4988;49.238;6.698;2023-05-07T06:24:39;7.67;;;5.57;;
9898;SDS011;4988;49.238;6.698;2023-05-07T06:27:05;7.00;;;5.67;;
9898;SDS011;4988;49.238;6.698;2023-05-07T06:29:30;10.30;;;5.93;;
9898;SDS011;4988;49.238;6.698;2023-05-07T06:32:05;7.63;;;5.33;;
9898;SDS011;4988;49.238;6.698;2023-05-07T06:34:35;7.77;;;5.27;;
9898;SDS011;4988;49.238;6.698;2023-05-07T06:37:00;8.57;;;5.67;;
9898;SDS011;4988;49.238;6.698;2023-05-07T06:39:29;9.40;;;5.00;;
9898;SDS011;4988;49.238;6.698;2023-05-07T06:41:54;9.07;;;4.80;;
9898;SDS011;4988;49.238;6.698;2023-05-07T06:44:20;8.23;;;5.43;;
9898;SDS011;4988;49.238;6.698;2023-05-07T06:46:45;7.63;;;5.10;;
9898;SDS011;4988;49.238;6.698;2023-05-07T06:49:11;8.43;;;5.70;;
9898;SDS011;4988;49.238;6.698;2023-05-07T06:51:37;9.10;;;5.20;;
9898;SDS011;4988;49.238;6.698;2023-05-07T06:54:02;8.93;;;5.70;;
9898;SDS011;4988;49.238;6.698;2023-05-07T06:56:29;7.97;;;4.97;;
9898;SDS011;4988;49.238;6.698;2023-05-07T06:58:55;10.97;;;5.30;;
9898;SDS011;4988;49.238;6.698;2023-05-07T07:01:20;9.17;;;5.20;;
9898;SDS011;4988;49.238;6.698;2023-05-07T07:03:45;9.50;;;5.30;;
9898;SDS011;4988;49.238;6.698;2023-05-07T07:06:10;9.27;;;5.43;;
9898;SDS011;4988;49.238;6.698;2023-05-07T07:08:36;9.50;;;4.90;;
9898;SDS011;4988;49.238;6.698;2023-05-07T07:11:03;10.93;;;5.33;;
9898;SDS011;4988;49.238;6.698;2023-05-07T07:13:29;7.67;;;5.40;;
9898;SDS011;4988;49.238;6.698;2023-05-07T07:15:54;7.47;;;5.13;;
9898;SDS011;4988;49.238;6.698;2023-05-07T07:18:19;9.70;;;5.43;;
9898;SDS011;4988;49.238;6.698;2023-05-07T07:20:45;6.43;;;4.53;;
9898;SDS011;4988;49.238;6.698;2023-05-07T07:23:10;9.43;;;5.60;;
9898;SDS011;4988;49.238;6.698;2023-05-07T07:25:36;8.00;;;5.30;;
9898;SDS011;4988;49.238;6.698;2023-05-07T07:28:01;10.50;;;5.37;;
9898;SDS011;4988;49.238;6.698;2023-05-07T07:30:27;12.10;;;5.93;;
9898;SDS011;4988;49.238;6.698;2023-05-07T07:32:52;10.07;;;5.90;;
9898;SDS011;4988;49.238;6.698;2023-05-07T07:35:18;8.27;;;5.40;;
9898;SDS011;4988;49.238;6.698;2023-05-07T07:37:43;8.30;;;4.80;;
9898;SDS011;4988;49.238;6.698;2023-05-07T07:40:11;10.43;;;5.27;;
9898;SDS011;4988;49.238;6.698;2023-05-07T07:42:36;9.33;;;5.07;;
9898;SDS011;4988;49.238;6.698;2023-05-07T07:45:02;9.00;;;5.37;;
9898;SDS011;4988;49.238;6.698;2023-05-07T07:47:28;10.73;;;5.10;;
9898;SDS011;4988;49.238;6.698;2023-05-07T07:49:53;8.37;;;4.87;;
9898;SDS011;4988;49.238;6.698;2023-05-07T07:52:18;11.27;;;5.50;;
9898;SDS011;4988;49.238;6.698;2023-05-07T07:54:44;9.77;;;5.23;;
9898;SDS011;4988;49.238;6.698;2023-05-07T07:57:09;7.63;;;5.10;;
9898;SDS011;4988;49.238;6.698;2023-05-07T07:59:35;7.37;;;5.10;;
9898;SDS011;4988;49.238;6.698;2023-05-07T08:02:01;8.17;;;5.30;;
9898;SDS011;4988;49.238;6.698;2023-05-07T08:04:26;7.17;;;4.60;;
9898;SDS011;4988;49.238;6.698;2023-05-07T08:06:51;8.13;;;4.83;;
9898;SDS011;4988;49.238;6.698;2023-05-07T08:09:19;7.73;;;4.73;;
9898;SDS011;4988;49.238;6.698;2023-05-07T08:11:45;8.40;;;4.63;;
9898;SDS011;4988;49.238;6.698;2023-05-07T08:14:10;8.83;;;4.90;;
9898;SDS011;4988;49.238;6.698;2023-05-07T08:16:36;8.00;;;4.90;;
9898;SDS011;4988;49.238;6.698;2023-05-07T08:19:01;11.00;;;5.17;;
9898;SDS011;4988;49.238;6.698;2023-05-07T08:21:27;9.27;;;4.87;;
9898;SDS011;4988;49.238;6.698;2023-05-07T08:23:52;9.63;;;5.47;;
9898;SDS011;4988;49.238;6.698;2023-05-07T08:26:18;10.33;;;5.60;;
9898;SDS011;4988;49.238;6.698;2023-05-07T08:28:43;10.73;;;5.50;;
9898;SDS011;4988;49.238;6.698;2023-05-07T08:31:08;10.53;;;5.30;;
9898;SDS011;4988;49.238;6.698;2023-05-07T08:33:34;11.07;;;5.20;;
9898;SDS011;4988;49.238;6.698;2023-05-07T08:35:59;9.50;;;5.30;;
9898;SDS011;4988;49.238;6.698;2023-05-07T08:38:25;10.97;;;4.93;;
9898;SDS011;4988;49.238;6.698;2023-05-07T08:40:50;9.17;;;4.93;;
9898;SDS011;4988;49.238;6.698;2023-05-07T08:43:15;8.00;;;4.10;;
9898;SDS011;4988;49.238;6.698;2023-05-07T08:45:43;6.23;;;4.43;;
9898;SDS011;4988;49.238;6.698;2023-05-07T08:48:16;6.67;;;4.13;;
9898;SDS011;4988;49.238;6.698;2023-05-07T08:50:42;11.47;;;4.50;;
9898;SDS011;4988;49.238;6.698;2023-05-07T08:53:07;6.47;;;4.00;;
9898;SDS011;4988;49.238;6.698;2023-05-07T08:55:33;5.60;;;3.73;;
9898;SDS011;4988;49.238;6.698;2023-05-07T08:57:59;8.20;;;4.10;;
9898;SDS011;4988;49.238;6.698;2023-05-07T09:00:25;6.37;;;3.63;;
9898;SDS011;4988;49.238;6.698;2023-05-07T09:02:52;15.27;;;7.00;;
9898;SDS011;4988;49.238;6.698;2023-05-07T09:05:18;9.87;;;4.03;;
9898;SDS011;4988;49.238;6.698;2023-05-07T09:07:43;5.40;;;4.00;;
9898;SDS011;4988;49.238;6.698;2023-05-07T09:10:09;5.70;;;3.90;;
9898;SDS011;4988;49.238;6.698;2023-05-07T09:12:34;6.33;;;3.70;;
9898;SDS011;4988;49.238;6.698;2023-05-07T09:15:01;7.03;;;4.07;;
9898;SDS011;4988;49.238;6.698;2023-05-07T09:17:27;5.97;;;4.30;;
9898;SDS011;4988;49.238;6.698;2023-05-07T09:19:53;9.30;;;3.90;;
9898;SDS011;4988;49.238;6.698;2023-05-07T09:22:18;6.47;;;3.90;;
9898;SDS011;4988;49.238;6.698;2023-05-07T09:24:47;6.43;;;3.40;;
9898;SDS011;4988;49.238;6.698;2023-05-07T09:27:13;4.87;;;3.57;;
9898;SDS011;4988;49.238;6.698;2023-05-07T09:29:39;8.00;;;3.60;;
9898;SDS011;4988;49.238;6.698;2023-05-07T09:32:06;5.90;;;3.53;;
9898;SDS011;4988;49.238;6.698;2023-05-07T09:34:32;5.83;;;3.40;;
9898;SDS011;4988;49.238;6.698;2023-05-07T09:37:01;5.60;;;3.63;;
9898;SDS011;4988;49.238;6.698;2023-05-07T09:39:37;4.33;;;3.10;;
9898;SDS011;4988;49.238;6.698;2023-05-07T09:42:03;5.83;;;3.70;;
9898;SDS011;4988;49.238;6.698;2023-05-07T09:44:29;4.90;;;3.60;;
9898;SDS011;4988;49.238;6.698;2023-05-07T09:46:56;4.40;;;3.40;;
9898;SDS011;4988;49.238;6.698;2023-05-07T09:49:25;4.07;;;2.87;;
9898;SDS011;4988;49.238;6.698;2023-05-07T09:51:55;8.53;;;3.63;;
9898;SDS011;4988;49.238;6.698;2023-05-07T09:54:23;4.63;;;3.37;;
9898;SDS011;4988;49.238;6.698;2023-05-07T09:56:49;5.57;;;3.43;;
9898;SDS011;4988;49.238;6.698;2023-05-07T09:59:16;4.60;;;3.30;;
9898;SDS011;4988;49.238;6.698;2023-05-07T10:01:42;5.13;;;3.50;;
9898;SDS011;4988;49.238;6.698;2023-05-07T10:04:12;6.07;;;3.60;;
9898;SDS011;4988;49.238;6.698;2023-05-07T10:06:39;7.90;;;3.23;;
9898;SDS011;4988;49.238;6.698;2023-05-07T10:09:05;6.00;;;3.27;;
9898;SDS011;4988;49.238;6.698;2023-05-07T10:11:32;6.20;;;3.97;;
9898;SDS011;4988;49.238;6.698;2023-05-07T10:13:59;5.57;;;3.20;;
9898;SDS011;4988;49.238;6.698;2023-05-07T10:16:27;6.23;;;3.13;;
9898;SDS011;4988;49.238;6.698;2023-05-07T10:18:56;5.03;;;3.20;;
9898;SDS011;4988;49.238;6.698;2023-05-07T10:21:23;5.57;;;3.53;;
9898;SDS011;4988;49.238;6.698;2023-05-07T10:23:58;4.03;;;3.00;;
9898;SDS011;4988;49.238;6.698;2023-05-07T10:26:31;6.33;;;3.40;;
9898;SDS011;4988;49.238;6.698;2023-05-07T10:29:05;5.53;;;3.07;;
9898;SDS011;4988;49.238;6.698;2023-05-07T10:31:41;7.03;;;3.47;;
9898;SDS011;4988;49.238;6.698;2023-05-07T10:34:21;5.07;;;3.07;;
9898;SDS011;4988;49.238;6.698;2023-05-07T10:36:51;5.07;;;3.10;;
9898;SDS011;4988;49.238;6.698;2023-05-07T10:39:19;5.20;;;2.97;;
9898;SDS011;4988;49.238;6.698;2023-05-07T10:41:47;8.00;;;3.10;;
9898;SDS011;4988;49.238;6.698;2023-05-07T10:44:24;4.40;;;2.90;;
9898;SDS011;4988;49.238;6.698;2023-05-07T10:47:06;4.67;;;3.13;;
9898;SDS011;4988;49.238;6.698;2023-05-07T10:49:35;6.00;;;2.83;;
9898;SDS011;4988;49.238;6.698;2023-05-07T10:54:45;5.10;;;3.20;;
9898;SDS011;4988;49.238;6.698;2023-05-07T11:00:01;7.37;;;3.07;;
9898;SDS011;4988;49.238;6.698;2023-05-07T11:05:30;4.23;;;3.03;;
9898;SDS011;4988;49.238;6.698;2023-05-07T11:08:00;5.20;;;2.90;;
9898;SDS011;4988;49.238;6.698;2023-05-07T11:13:19;5.63;;;3.10;;
9898;SDS011;4988;49.238;6.698;2023-05-07T11:16:20;5.27;;;3.20;;
9898;SDS011;4988;49.238;6.698;2023-05-07T11:18:48;5.33;;;2.90;;
9898;SDS011;4988;49.238;6.698;2023-05-07T11:21:34;3.83;;;2.90;;
9898;SDS011;4988;49.238;6.698;2023-05-07T11:24:01;4.33;;;3.27;;
9898;SDS011;4988;49.238;6.698;2023-05-07T11:26:28;5.13;;;3.10;;
9898;SDS011;4988;49.238;6.698;2023-05-07T11:28:55;6.57;;;3.17;;
9898;SDS011;4988;49.238;6.698;2023-05-07T11:31:22;5.97;;;3.33;;
9898;SDS011;4988;49.238;6.698;2023-05-07T11:33:49;6.57;;;3.27;;
9898;SDS011;4988;49.238;6.698;2023-05-07T11:36:15;4.33;;;3.07;;
9898;SDS011;4988;49.238;6.698;2023-05-07T11:38:40;6.73;;;2.93;;
9898;SDS011;4988;49.238;6.698;2023-05-07T11:41:06;6.17;;;3.40;;
9898;SDS011;4988;49.238;6.698;2023-05-07T11:43:32;5.47;;;3.50;;
9898;SDS011;4988;49.238;6.698;2023-05-07T11:48:37;5.70;;;3.20;;
9898;SDS011;4988;49.238;6.698;2023-05-07T11:51:04;4.90;;;3.57;;
9898;SDS011;4988;49.238;6.698;2023-05-07T11:53:41;5.40;;;3.33;;
9898;SDS011;4988;49.238;6.698;2023-05-07T11:56:10;6.87;;;3.40;;
9898;SDS011;4988;49.238;6.698;2023-05-07T11:58:37;9.90;;;3.97;;
9898;SDS011;4988;49.238;6.698;2023-05-07T12:01:03;5.37;;;3.47;;
9898;SDS011;4988;49.238;6.698;2023-05-07T12:03:29;9.37;;;3.87;;
9898;SDS011;4988;49.238;6.698;2023-05-07T12:05:54;5.83;;;3.60;;
9898;SDS011;4988;49.238;6.698;2023-05-07T12:08:20;7.07;;;3.53;;
9898;SDS011;4988;49.238;6.698;2023-05-07T12:10:49;8.53;;;3.73;;
9898;SDS011;4988;49.238;6.698;2023-05-07T12:15:53;5.47;;;3.80;;
9898;SDS011;4988;49.238;6.698;2023-05-07T12:18:20;6.27;;;3.77;;
9898;SDS011;4988;49.238;6.698;2023-05-07T12:20:46;5.10;;;3.70;;
9898;SDS011;4988;49.238;6.698;2023-05-07T12:23:12;8.10;;;3.70;;
9898;SDS011;4988;49.238;6.698;2023-05-07T12:25:38;6.50;;;4.00;;
9898;SDS011;4988;49.238;6.698;2023-05-07T12:28:05;5.47;;;3.67;;
9898;SDS011;4988;49.238;6.698;2023-05-07T12:30:31;4.73;;;3.80;;
9898;SDS011;4988;49.238;6.698;2023-05-07T12:32:57;5.60;;;4.27;;
9898;SDS011;4988;49.238;6.698;2023-05-07T12:35:26;7.80;;;3.93;;
9898;SDS011;4988;49.238;6.698;2023-05-07T12:37:55;5.57;;;3.70;;
9898;SDS011;4988;49.238;6.698;2023-05-07T12:40:21;12.27;;;3.93;;
9898;SDS011;4988;49.238;6.698;2023-05-07T12:42:47;7.20;;;3.70;;
9898;SDS011;4988;49.238;6.698;2023-05-07T12:45:18;6.70;;;4.10;;
9898;SDS011;4988;49.238;6.698;2023-05-07T12:47:44;11.07;;;4.60;;
9898;SDS011;4988;49.238;6.698;2023-05-07T12:50:10;8.80;;;4.30;;
9898;SDS011;4988;49.238;6.698;2023-05-07T12:52:36;7.03;;;3.37;;
9898;SDS011;4988;49.238;6.698;2023-05-07T12:55:05;5.67;;;3.77;;
9898;SDS011;4988;49.238;6.698;2023-05-07T12:57:37;8.60;;;4.53;;
9898;SDS011;4988;49.238;6.698;2023-05-07T13:00:06;8.90;;;4.30;;
9898;SDS011;4988;49.238;6.698;2023-05-07T13:02:32;9.90;;;4.23;;
9898;SDS011;4988;49.238;6.698;2023-05-07T13:04:59;8.27;;;5.03;;
9898;SDS011;4988;49.238;6.698;2023-05-07T13:07:25;7.43;;;4.70;;
9898;SDS011;4988;49.238;6.698;2023-05-07T13:09:50;8.03;;;4.63;;
9898;SDS011;4988;49.238;6.698;2023-05-07T13:12:15;6.60;;;4.03;;
9898;SDS011;4988;49.238;6.698;2023-05-07T13:14:41;9.67;;;5.17;;
9898;SDS011;4988;49.238;6.698;2023-05-07T13:17:06;10.20;;;5.93;;
9898;SDS011;4988;49.238;6.698;2023-05-07T13:19:31;9.90;;;5.60;;
9898;SDS011;4988;49.238;6.698;2023-05-07T13:21:57;9.87;;;5.17;;
9898;SDS011;4988;49.238;6.698;2023-05-07T13:24:22;9.47;;;6.00;;
9898;SDS011;4988;49.238;6.698;2023-05-07T13:26:47;7.60;;;4.73;;
9898;SDS011;4988;49.238;6.698;2023-05-07T13:29:12;12.27;;;5.90;;
9898;SDS011;4988;49.238;6.698;2023-05-07T13:31:38;10.07;;;6.10;;
9898;SDS011;4988;49.238;6.698;2023-05-07T13:34:07;10.00;;;6.20;;
9898;SDS011;4988;49.238;6.698;2023-05-07T13:36:33;9.07;;;6.07;;
9898;SDS011;4988;49.238;6.698;2023-05-07T13:39:02;8.50;;;5.60;;
9898;SDS011;4988;49.238;6.698;2023-05-07T13:41:28;11.00;;;5.67;;
9898;SDS011;4988;49.238;6.698;2023-05-07T13:43:53;10.03;;;6.27;;
9898;SDS011;4988;49.238;6.698;2023-05-07T13:46:19;7.73;;;6.00;;
9898;SDS011;4988;49.238;6.698;2023-05-07T13:48:44;7.70;;;5.57;;
9898;SDS011;4988;49.238;6.698;2023-05-07T13:51:10;8.57;;;5.73;;
9898;SDS011;4988;49.238;6.698;2023-05-07T13:53:35;9.87;;;5.33;;
9898;SDS011;4988;49.238;6.698;2023-05-07T13:56:01;10.87;;;6.40;;
9898;SDS011;4988;49.238;6.698;2023-05-07T13:58:29;7.40;;;5.20;;
9898;SDS011;4988;49.238;6.698;2023-05-07T14:00:54;8.87;;;5.67;;
9898;SDS011;4988;49.238;6.698;2023-05-07T14:03:20;11.17;;;6.40;;
9898;SDS011;4988;49.238;6.698;2023-05-07T14:05:45;10.20;;;7.50;;
9898;SDS011;4988;49.238;6.698;2023-05-07T14:08:10;8.50;;;5.90;;
9898;SDS011;4988;49.238;6.698;2023-05-07T14:10:37;8.40;;;5.50;;
9898;SDS011;4988;49.238;6.698;2023-05-07T14:13:04;7.83;;;5.20;;
9898;SDS011;4988;49.238;6.698;2023-05-07T14:15:29;8.10;;;5.43;;
9898;SDS011;4988;49.238;6.698;2023-05-07T14:17:55;8.43;;;5.30;;
9898;SDS011;4988;49.238;6.698;2023-05-07T14:20:22;11.90;;;6.27;;
9898;SDS011;4988;49.238;6.698;2023-05-07T14:22:47;9.10;;;5.80;;
9898;SDS011;4988;49.238;6.698;2023-05-07T14:25:13;8.13;;;5.13;;
9898;SDS011;4988;49.238;6.698;2023-05-07T14:27:38;8.77;;;5.43;;
9898;SDS011;4988;49.238;6.698;2023-05-07T14:30:04;9.43;;;6.20;;
9898;SDS011;4988;49.238;6.698;2023-05-07T14:32:30;9.63;;;5.93;;
9898;SDS011;4988;49.238;6.698;2023-05-07T14:34:55;8.77;;;5.90;;
9898;SDS011;4988;49.238;6.698;2023-05-07T14:37:20;8.23;;;5.30;;
9898;SDS011;4988;49.238;6.698;2023-05-07T14:39:46;8.70;;;5.37;;
9898;SDS011;4988;49.238;6.698;2023-05-07T14:42:11;7.93;;;5.50;;
9898;SDS011;4988;49.238;6.698;2023-05-07T14:44:37;9.80;;;5.43;;
9898;SDS011;4988;49.238;6.698;2023-05-07T14:47:02;8.17;;;5.17;;
9898;SDS011;4988;49.238;6.698;2023-05-07T14:49:28;8.20;;;5.70;;
9898;SDS011;4988;49.238;6.698;2023-05-07T14:51:53;11.93;;;5.70;;
9898;SDS011;4988;49.238;6.698;2023-05-07T14:54:18;6.10;;;4.87;;
9898;SDS011;4988;49.238;6.698;2023-05-07T14:56:44;7.97;;;5.23;;
9898;SDS011;4988;49.238;6.698;2023-05-07T14:59:09;10.93;;;5.57;;
9898;SDS011;4988;49.238;6.698;2023-05-07T15:01:35;9.23;;;4.93;;
9898;SDS011;4988;49.238;6.698;2023-05-07T15:04:02;8.03;;;5.27;;
9898;SDS011;4988;49.238;6.698;2023-05-07T15:06:28;8.57;;;5.00;;
9898;SDS011;4988;49.238;6.698;2023-05-07T15:08:54;8.00;;;4.87;;
9898;SDS011;4988;49.238;6.698;2023-05-07T15:11:19;9.53;;;6.20;;
9898;SDS011;4988;49.238;6.698;2023-05-07T15:13:45;7.03;;;5.00;;
9898;SDS011;4988;49.238;6.698;2023-05-07T15:16:10;8.57;;;5.00;;
9898;SDS011;4988;49.238;6.698;2023-05-07T15:18:36;6.43;;;4.53;;
9898;SDS011;4988;49.238;6.698;2023-05-07T15:21:01;6.80;;;4.83;;
9898;SDS011;4988;49.238;6.698;2023-05-07T15:23:27;7.93;;;5.13;;
9898;SDS011;4988;49.238;6.698;2023-05-07T15:25:52;7.93;;;4.80;;